Saturday, January 20, 2018, 8:21 AM EST
Back to Local

KYNG, Youngstown-warren Reg Airprt

Location: Vienna, OH, United States Lat: 41.25
Local Time: 8:21 AM EST (13:21 GMT) Lon: -80.667
Time Zone: US/Eastern Elev: 1197 ft

Show me the last for .
Show Decoded

2018-01-20 07:51 METAR KYNG 201251Z 22011KT 10SM SCT180 BKN240 01/M06 A2994 RMK AO2 SLP151
                 T00061056 =
2018-01-20 06:51 METAR KYNG 201151Z 22012KT 10SM SCT240 01/M06 A2993 RMK AO2 SLP146 4/005
                 T00061056 10011 20006 53010 =
2018-01-20 05:51 METAR KYNG 201051Z 21010KT 10SM SCT240 01/M06 A2992 RMK AO2 SLP142 T00061056 =
2018-01-20 04:51 METAR KYNG 200951Z 21011G20KT 10SM SCT240 01/M06 A2990 RMK AO2 SLP136 T00111056
                 =
2018-01-20 03:51 METAR KYNG 200851Z 22011G17KT 10SM BKN240 01/M06 A2990 RMK AO2 SLP136 T00111061
                 50011 =
2018-01-20 01:51 METAR KYNG 200651Z 22014KT 10SM SCT250 01/M07 A2988 RMK AO2 SLP129 T00111067 =
2018-01-20 00:51 METAR KYNG 200551Z 22014G19KT 10SM SCT250 01/M07 A2987 RMK AO2 SLP126 4/005
                 T00111067 10017 20006 56015 =
2018-01-19 23:51 METAR KYNG 200451Z 21015G21KT 10SM FEW100 BKN250 01/M08 A2988 RMK AO2 SLP128
                 T00111078 400281067 =
2018-01-19 22:51 METAR KYNG 200351Z 21010KT 10SM BKN250 01/M08 A2990 RMK AO2 SLP138 T00061083 =
2018-01-19 21:51 METAR KYNG 200251Z 21012KT 10SM BKN250 01/M08 A2991 RMK AO2 SLP143 T00111083
                 56013 =
2018-01-19 20:51 METAR KYNG 200151Z 20011KT 10SM BKN250 01/M08 A2992 RMK AO2 SLP146 T00111078 =
2018-01-19 19:51 METAR KYNG 200051Z 21011G20KT 10SM BKN250 02/M08 A2993 RMK AO2 SLP151 T00171078
                 =
2018-01-19 18:51 METAR KYNG 192351Z 21009KT 10SM SCT250 02/M08 A2995 RMK AO2 SLP157 4/006
                 T00171078 10028 21006 52005 =
2018-01-19 17:51 METAR KYNG 192251Z 22010KT 10SM SCT250 02/M08 A2995 RMK AO2 SLP155 T00171078 =
2018-01-19 16:51 METAR KYNG 192151Z 21012KT 10SM SCT250 02/M08 A2995 RMK AO2 SLP155 T00221078 =
2018-01-19 15:51 METAR KYNG 192051Z 19011KT 10SM FEW250 02/M08 A2994 RMK AO2 SLP152 T00221078
                 56018 =
2018-01-19 14:51 METAR KYNG 191951Z 21011KT 10SM FEW250 02/M08 A2995 RMK AO2 SLP155 T00171083 =
2018-01-19 13:51 METAR KYNG 191851Z 21011G22KT 10SM SCT250 01/M09 A2996 RMK AO2 SLP160 T00111089
                 =
2018-01-19 12:51 METAR KYNG 191751Z 21011G20KT 10SM SCT250 M01/M09 A2999 RMK AO2 SLP171 4/006
                 933010 T10061094 11006 21067 58016 =
2018-01-19 11:51 METAR KYNG 191651Z 20014G20KT 10SM FEW250 M02/M10 A3003 RMK AO2 SLP182 T10171100
                 =
2018-01-19 10:51 METAR KYNG 191551Z 22010G18KT 10SM FEW250 M03/M11 A3004 RMK AO2 SLP189 T10281106
                 =
2018-01-19 09:51 METAR KYNG 191451Z 21010G18KT 10SM FEW250 M04/M11 A3004 RMK AO2 SLP189 T10441111
                 55002 =
2018-01-19 08:51 METAR KYNG 191351Z 20011KT 10SM FEW250 M06/M12 A3003 RMK AO2 SLP187 T10561117 =

Support USWX by starting your Amazon purchase here.